Portada
METAR-TAF:

METAR-TAF

Aeroports :

Hassi R'Mel, Algèria

latitud: 32-55-48N, longitud: 003-18-44E, altitud: 774 m

Observació

L'informe es va fer fa 3 hores i 4 minuts, a les 18:00 UTC
Vent 12 kt del Sud/Sud-Oest
Temperatura 15°C
Humitat 59%
Pressió 1010 hPa
Visibilitat 10 km o més
Núvols disperses a una alçada de 3000 ft

METAR: DAFH 181800Z 21012KT 9999 SCT030 15/07 Q1010

Hora: 22:04 (21:04 UTC)

Pronòstic

L'informe es va fer fa 4 hores i 4 minuts, a les 17:00 UTC
Pronòstic vàlid del 18 a les 18 UTC al 19 a les 03 UTC
Vent 12 kt del Sud/Sud-Oest
Visibilitat 10 km o més
Núvols disperses a una alçada de 3000 ft
Probabilitat 40% :
Temporalment
l' 18 a les 18 UTC al 18 a les 21 UTC
Vent 22 kt del Oest/Sud-Oest
Visibilitat: 5000 m
torb baixa de sorra

TAF: DAFH 181700Z 1818/1903 20012KT 9999 SCT030 PROB40 TEMPO 1818/1821 24022KT 5000 DRSA

Observacions i pronòstics meteorològics de més de 4000 aeroports (METAR i TAF).

Les estacions disponibles són els punts grocs i vermells al mapa.

Posi el ratolí al punt desitjat per veure el nom de l'estació.

Feu clic per veure les observacions i els pronòstics meteorològics.

Per canviar el mapa: feu clic els botons verds amb una creu de color negre per apropar; al botó verd amb un guió per allunyar la imatge; o en les fletxes verdes per a mapes adjacents.


METAR-TAF: